createdAt,value
2019-05-19T00:01:15.517Z,10.95
2019-05-19T00:03:49.124Z,10.97
2019-05-19T00:06:21.037Z,11.00
2019-05-19T00:08:55.151Z,10.95
2019-05-19T00:11:28.016Z,10.88
2019-05-19T00:14:01.019Z,10.76
2019-05-19T00:16:32.728Z,10.79
2019-05-19T00:19:05.654Z,10.70
2019-05-19T00:21:38.121Z,10.64
2019-05-19T00:24:13.636Z,10.69
2019-05-19T00:26:44.992Z,10.65
2019-05-19T00:29:18.366Z,10.54
2019-05-19T00:31:52.931Z,10.45
2019-05-19T00:34:24.215Z,10.47
2019-05-19T00:36:59.004Z,10.46
2019-05-19T00:39:31.203Z,10.50
2019-05-19T00:42:03.287Z,10.58
2019-05-19T00:44:37.569Z,10.55
2019-05-19T00:47:09.376Z,10.54
2019-05-19T00:49:42.329Z,10.51
2019-05-19T00:52:15.362Z,10.38
2019-05-19T00:54:50.014Z,10.20
2019-05-19T00:57:26.263Z,10.10
2019-05-19T01:00:01.008Z,10.23
2019-05-19T01:02:32.309Z,10.07
2019-05-19T01:05:07.616Z,9.42
2019-05-19T01:07:39.384Z,10.22
2019-05-19T01:10:12.665Z,10.09
2019-05-19T01:12:44.416Z,10.14
2019-05-19T01:15:17.333Z,10.04
2019-05-19T01:17:51.260Z,10.20
2019-05-19T01:20:24.292Z,10.10
2019-05-19T01:22:58.847Z,10.13
2019-05-19T01:25:31.315Z,10.17
2019-05-19T01:28:03.348Z,10.10
2019-05-19T01:30:36.949Z,10.20
2019-05-19T01:33:11.268Z,10.23
2019-05-19T01:35:45.540Z,10.22
2019-05-19T01:38:18.389Z,10.11
2019-05-19T01:40:50.506Z,10.05
2019-05-19T01:43:25.939Z,10.05
2019-05-19T01:45:58.610Z,10.16
2019-05-19T01:48:30.449Z,10.10
2019-05-19T01:51:03.434Z,9.98
2019-05-19T01:53:39.697Z,10.06
2019-05-19T01:56:11.345Z,9.95
2019-05-19T01:58:44.760Z,9.86
2019-05-19T02:01:19.414Z,10.02
2019-05-19T02:03:51.646Z,10.10
2019-05-19T02:06:24.671Z,9.99
2019-05-19T02:08:58.513Z,9.68
2019-05-19T02:11:29.753Z,9.32
2019-05-19T02:14:04.376Z,9.94
2019-05-19T02:16:39.255Z,9.96
2019-05-19T02:19:13.241Z,9.86
2019-05-19T02:21:46.101Z,9.98
2019-05-19T02:24:19.352Z,9.91
2019-05-19T02:26:53.119Z,9.94
2019-05-19T02:29:26.682Z,9.99
2019-05-19T02:32:01.878Z,9.97
2019-05-19T02:34:33.687Z,9.89
2019-05-19T02:37:05.664Z,9.97
2019-05-19T02:39:37.969Z,10.03
2019-05-19T02:42:13.224Z,10.00
2019-05-19T02:44:46.355Z,9.96
2019-05-19T02:47:19.794Z,9.93
2019-05-19T02:49:53.410Z,9.96
2019-05-19T02:52:27.386Z,9.98
2019-05-19T02:55:01.886Z,9.88
2019-05-19T02:57:34.387Z,9.92
2019-05-19T03:00:07.124Z,9.92
2019-05-19T03:02:40.477Z,9.90
2019-05-19T03:05:12.075Z,9.97
2019-05-19T03:07:44.834Z,9.98
2019-05-19T03:10:17.723Z,9.75
2019-05-19T03:12:50.847Z,9.85
2019-05-19T03:15:22.273Z,9.91
2019-05-19T03:17:54.436Z,9.96
2019-05-19T03:20:27.030Z,9.93
2019-05-19T03:22:59.924Z,9.84
2019-05-19T03:25:32.931Z,9.87
2019-05-19T03:28:05.865Z,9.83
2019-05-19T03:31:08.922Z,9.82
2019-05-19T03:33:44.165Z,9.85
2019-05-19T03:36:16.023Z,9.81
2019-05-19T03:38:50.045Z,9.83
2019-05-19T03:41:24.023Z,9.90
2019-05-19T03:43:58.424Z,9.98
2019-05-19T03:46:29.922Z,10.02
2019-05-19T03:49:04.374Z,10.00
2019-05-19T03:51:36.405Z,10.05
2019-05-19T03:54:10.192Z,9.96
2019-05-19T03:56:42.137Z,9.91
2019-05-19T03:59:16.397Z,9.94
2019-05-19T04:01:49.685Z,10.01
2019-05-19T04:04:21.338Z,9.93
2019-05-19T04:06:55.178Z,9.99
2019-05-19T04:09:27.418Z,10.07
2019-05-19T04:12:00.160Z,10.03
2019-05-19T04:14:34.770Z,10.11
2019-05-19T04:17:06.030Z,10.16
2019-05-19T04:19:37.283Z,10.15
2019-05-19T04:22:09.230Z,10.16
2019-05-19T04:24:45.416Z,10.21
2019-05-19T04:27:18.303Z,10.28
2019-05-19T04:29:50.340Z,10.32
2019-05-19T04:32:24.405Z,10.37
2019-05-19T04:34:58.678Z,10.28
2019-05-19T04:37:31.129Z,10.37
2019-05-19T04:40:03.224Z,10.45
2019-05-19T04:42:38.300Z,10.48
2019-05-19T04:45:12.394Z,10.46
2019-05-19T04:47:46.580Z,10.48
2019-05-19T04:50:19.996Z,10.33
2019-05-19T04:52:53.065Z,10.37
2019-05-19T04:55:25.860Z,10.37
2019-05-19T04:57:58.227Z,10.34
2019-05-19T05:00:30.358Z,10.35
2019-05-19T05:03:03.358Z,10.37
2019-05-19T05:05:36.683Z,10.33
2019-05-19T05:08:25.231Z,10.43
2019-05-19T05:10:43.334Z,10.44
2019-05-19T05:13:16.653Z,10.42
2019-05-19T05:15:48.375Z,10.46
2019-05-19T05:18:21.480Z,10.47
2019-05-19T05:20:54.205Z,10.52
2019-05-19T05:23:27.637Z,10.36
2019-05-19T05:26:00.641Z,10.10
2019-05-19T05:28:33.519Z,10.27
2019-05-19T05:31:09.707Z,10.41
2019-05-19T05:33:42.714Z,10.58
2019-05-19T05:36:15.678Z,10.78
2019-05-19T05:38:48.718Z,10.94
2019-05-19T05:41:21.470Z,11.08
2019-05-19T05:43:55.625Z,11.25
2019-05-19T05:46:28.923Z,11.41
2019-05-19T05:49:00.673Z,11.52
2019-05-19T05:51:35.185Z,11.58
2019-05-19T05:54:06.434Z,11.68
2019-05-19T05:56:37.794Z,11.75
2019-05-19T05:59:09.899Z,11.75
2019-05-19T06:01:44.530Z,11.79
2019-05-19T06:04:18.624Z,11.82
2019-05-19T06:06:54.203Z,11.91
2019-05-19T06:09:29.547Z,12.00
2019-05-19T06:12:05.765Z,12.00
2019-05-19T06:14:40.905Z,12.04
2019-05-19T06:17:12.870Z,12.08
2019-05-19T06:19:46.488Z,12.24
2019-05-19T06:22:19.885Z,12.25
2019-05-19T06:24:53.809Z,12.33
2019-05-19T06:27:27.546Z,12.59
2019-05-19T06:29:59.981Z,12.68
2019-05-19T06:32:36.934Z,12.79
2019-05-19T06:35:09.980Z,12.95
2019-05-19T06:37:41.774Z,13.12
2019-05-19T06:40:15.921Z,13.33
2019-05-19T06:42:48.768Z,13.45
2019-05-19T06:45:22.982Z,13.43
2019-05-19T06:47:54.302Z,13.47
2019-05-19T06:50:26.757Z,13.49
2019-05-19T06:53:13.256Z,13.76
2019-05-19T06:55:36.004Z,13.82
2019-05-19T06:58:09.963Z,14.02
2019-05-19T07:00:42.921Z,13.97
2019-05-19T07:03:14.980Z,14.02
2019-05-19T07:05:48.931Z,14.35
2019-05-19T07:08:20.859Z,14.53
2019-05-19T07:10:54.380Z,14.67
2019-05-19T07:13:27.052Z,14.76
2019-05-19T07:16:02.611Z,14.83
2019-05-19T07:18:35.408Z,15.03
2019-05-19T07:21:08.309Z,15.19
2019-05-19T07:23:42.654Z,15.16
2019-05-19T07:26:15.051Z,15.43
2019-05-19T07:28:47.037Z,15.48
2019-05-19T07:31:21.191Z,15.62
2019-05-19T07:33:54.518Z,15.81
2019-05-19T07:36:28.748Z,15.85
2019-05-19T07:39:01.888Z,15.93
2019-05-19T07:41:35.610Z,16.18
2019-05-19T07:44:10.212Z,16.06
2019-05-19T07:46:43.094Z,16.09
2019-05-19T07:49:16.330Z,16.19
2019-05-19T07:51:49.368Z,16.25
2019-05-19T07:54:21.049Z,16.41
2019-05-19T07:56:54.301Z,16.43
2019-05-19T07:59:28.465Z,16.44
2019-05-19T08:02:01.484Z,16.48
2019-05-19T08:04:33.389Z,16.65
2019-05-19T08:07:05.969Z,16.75
2019-05-19T08:09:39.290Z,16.83
2019-05-19T08:12:12.306Z,16.93
2019-05-19T08:14:44.337Z,16.88
2019-05-19T08:17:18.298Z,16.97
2019-05-19T08:19:50.544Z,16.89
2019-05-19T08:22:57.391Z,16.99
2019-05-19T08:25:30.311Z,17.08
2019-05-19T08:28:08.600Z,17.42
2019-05-19T08:30:40.277Z,17.46
2019-05-19T08:33:12.592Z,17.55
2019-05-19T08:35:47.781Z,17.70
2019-05-19T08:38:21.300Z,17.73
2019-05-19T08:40:55.455Z,17.92
2019-05-19T08:43:27.489Z,17.96
2019-05-19T08:46:00.419Z,17.94
2019-05-19T08:48:33.864Z,18.02
2019-05-19T08:51:06.524Z,18.09
2019-05-19T08:53:41.133Z,18.29
2019-05-19T08:56:12.411Z,18.34
2019-05-19T08:58:47.157Z,18.40
2019-05-19T09:01:18.389Z,18.54
2019-05-19T09:03:50.441Z,18.77
2019-05-19T09:06:24.136Z,18.68
2019-05-19T09:08:59.159Z,18.56
2019-05-19T09:11:31.346Z,18.47
2019-05-19T09:14:05.427Z,18.61
2019-05-19T09:16:39.460Z,18.94
2019-05-19T09:19:12.553Z,18.93
2019-05-19T09:21:46.554Z,19.04
2019-05-19T09:24:29.977Z,18.96
2019-05-19T09:26:55.673Z,19.09
2019-05-19T09:29:28.751Z,19.24
2019-05-19T09:32:01.494Z,19.09
2019-05-19T09:34:34.377Z,18.93
2019-05-19T09:37:07.828Z,18.77
2019-05-19T09:39:47.809Z,18.75
2019-05-19T09:42:21.612Z,18.64
2019-05-19T09:44:55.625Z,18.64
2019-05-19T09:47:28.163Z,18.80
2019-05-19T09:50:02.286Z,18.86
2019-05-19T09:52:33.661Z,18.94
2019-05-19T09:55:06.400Z,19.06
2019-05-19T09:57:40.728Z,18.96
2019-05-19T10:00:14.239Z,19.04
2019-05-19T10:02:47.553Z,19.16
2019-05-19T10:05:19.082Z,19.65
2019-05-19T10:07:52.418Z,19.64
2019-05-19T10:11:16.158Z,19.58
2019-05-19T10:13:50.338Z,19.79
2019-05-19T10:16:24.208Z,20.02
2019-05-19T10:18:59.580Z,20.08
2019-05-19T10:21:30.791Z,20.16
2019-05-19T10:24:06.500Z,20.29
2019-05-19T10:26:56.027Z,20.12
2019-05-19T10:29:46.193Z,19.89
2019-05-19T10:32:19.057Z,20.11
2019-05-19T10:34:57.130Z,20.19
2019-05-19T10:37:30.973Z,20.19
2019-05-19T10:40:05.354Z,20.30
2019-05-19T10:42:37.674Z,20.33
2019-05-19T10:45:11.789Z,20.62
2019-05-19T10:47:45.794Z,20.68
2019-05-19T10:50:18.901Z,20.75
2019-05-19T10:52:52.326Z,20.69
2019-05-19T10:55:35.669Z,20.67
2019-05-19T10:57:59.922Z,20.59
2019-05-19T11:00:34.338Z,20.70
2019-05-19T11:03:06.348Z,20.92
2019-05-19T11:05:40.001Z,20.93
2019-05-19T11:08:12.995Z,20.70
2019-05-19T11:10:47.128Z,20.43
2019-05-19T11:13:22.669Z,20.35
2019-05-19T11:15:54.291Z,20.16
2019-05-19T11:18:28.222Z,19.99
2019-05-19T11:21:03.864Z,20.07
2019-05-19T11:23:38.104Z,20.08
2019-05-19T11:26:13.731Z,20.27
2019-05-19T11:28:46.065Z,20.15
2019-05-19T11:31:18.042Z,19.87
2019-05-19T11:33:51.167Z,19.92
2019-05-19T11:36:25.071Z,19.95
2019-05-19T11:38:58.235Z,19.87
2019-05-19T11:41:31.194Z,20.10
2019-05-19T11:44:03.194Z,20.45
2019-05-19T11:46:36.172Z,20.47
2019-05-19T11:49:10.714Z,20.61
2019-05-19T11:51:43.323Z,20.54
2019-05-19T11:54:15.160Z,20.59
2019-05-19T11:56:49.358Z,20.14
2019-05-19T11:59:23.291Z,19.94
2019-05-19T12:01:58.011Z,19.85
2019-05-19T12:04:47.670Z,20.09
2019-05-19T12:07:20.423Z,20.04
2019-05-19T12:09:52.439Z,19.90
2019-05-19T12:12:25.231Z,19.79
2019-05-19T12:15:02.306Z,19.67
2019-05-19T12:17:37.114Z,19.38
2019-05-19T12:20:11.696Z,19.34
2019-05-19T12:22:49.777Z,19.32
2019-05-19T12:25:21.306Z,19.08
2019-05-19T12:27:55.454Z,19.06
2019-05-19T12:30:29.553Z,19.19
2019-05-19T12:33:02.564Z,19.21
2019-05-19T12:35:34.424Z,19.25
2019-05-19T12:38:06.028Z,19.52
2019-05-19T12:40:38.731Z,19.64
2019-05-19T12:43:12.561Z,19.90
2019-05-19T12:45:45.635Z,20.04
2019-05-19T12:48:19.191Z,19.88
2019-05-19T12:50:50.376Z,19.88
2019-05-19T12:53:25.749Z,20.09
2019-05-19T12:55:57.521Z,20.01
2019-05-19T12:58:33.116Z,20.01
2019-05-19T13:01:12.366Z,19.97
2019-05-19T13:03:44.766Z,19.99
2019-05-19T13:06:18.068Z,19.96
2019-05-19T13:08:51.955Z,19.76
2019-05-19T13:11:24.522Z,19.69
2019-05-19T13:13:56.025Z,19.51
2019-05-19T13:16:29.553Z,19.56
2019-05-19T13:19:02.966Z,19.57
2019-05-19T13:21:36.723Z,19.68
2019-05-19T13:24:09.699Z,19.75
2019-05-19T13:26:56.191Z,19.46
2019-05-19T13:29:19.617Z,19.77
2019-05-19T13:31:53.515Z,19.63
2019-05-19T13:34:27.741Z,19.65
2019-05-19T13:37:00.708Z,19.58
2019-05-19T13:39:32.800Z,19.64
2019-05-19T13:42:04.788Z,19.60
2019-05-19T13:44:38.852Z,19.70
2019-05-19T13:47:12.756Z,19.80
2019-05-19T13:49:46.255Z,20.15
2019-05-19T13:52:18.951Z,20.23
2019-05-19T13:54:50.237Z,20.34
2019-05-19T13:57:25.582Z,20.54
2019-05-19T13:59:56.801Z,20.88
2019-05-19T14:02:30.062Z,20.58
2019-05-19T14:05:02.198Z,20.50
2019-05-19T14:07:34.211Z,20.70
2019-05-19T14:10:07.826Z,20.83
2019-05-19T14:12:39.479Z,20.70
2019-05-19T14:15:13.120Z,20.42
2019-05-19T14:17:45.034Z,20.48
2019-05-19T14:20:22.634Z,20.36
2019-05-19T14:22:54.320Z,20.26
2019-05-19T14:25:27.114Z,20.03
2019-05-19T14:27:58.754Z,20.01
2019-05-19T14:30:32.591Z,19.98
2019-05-19T14:33:05.133Z,19.89
2019-05-19T14:35:45.196Z,19.88
2019-05-19T14:38:18.857Z,20.04
2019-05-19T14:40:52.416Z,20.05
2019-05-19T14:43:24.956Z,19.93
2019-05-19T14:46:00.715Z,19.89
2019-05-19T14:48:33.296Z,19.96
2019-05-19T14:51:07.219Z,19.87
2019-05-19T14:53:40.228Z,19.91
2019-05-19T14:56:13.101Z,19.93
2019-05-19T14:58:47.276Z,19.94
2019-05-19T15:01:18.987Z,19.96
2019-05-19T15:03:51.179Z,20.07
2019-05-19T15:06:25.285Z,20.12
2019-05-19T15:08:58.544Z,19.96
2019-05-19T15:11:32.155Z,19.99
2019-05-19T15:14:05.408Z,19.92
2019-05-19T15:16:39.021Z,19.91
2019-05-19T15:19:10.344Z,19.88
2019-05-19T15:21:44.857Z,19.82
2019-05-19T15:24:17.224Z,19.93
2019-05-19T15:26:50.281Z,19.71
2019-05-19T15:29:22.445Z,19.68
2019-05-19T15:31:56.302Z,19.73
2019-05-19T15:34:28.674Z,19.95
2019-05-19T15:37:02.217Z,19.95
2019-05-19T15:39:34.467Z,19.91
2019-05-19T15:42:06.405Z,19.78
2019-05-19T15:44:39.919Z,19.75
2019-05-19T15:47:11.382Z,20.00
2019-05-19T15:49:43.396Z,20.02
2019-05-19T15:52:15.530Z,20.13
2019-05-19T15:54:47.451Z,20.13
2019-05-19T15:57:18.670Z,20.01
2019-05-19T15:59:52.426Z,20.07
2019-05-19T16:02:25.835Z,20.03
2019-05-19T16:04:59.349Z,19.89
2019-05-19T16:07:32.909Z,19.91
2019-05-19T16:10:08.275Z,19.77
2019-05-19T16:12:41.476Z,19.70
2019-05-19T16:15:13.918Z,19.54
2019-05-19T16:17:46.508Z,19.56
2019-05-19T16:20:20.360Z,19.44
2019-05-19T16:22:54.761Z,19.38
2019-05-19T16:25:27.646Z,19.33
2019-05-19T16:28:01.654Z,19.16
2019-05-19T16:30:35.708Z,19.02
2019-05-19T16:33:07.043Z,19.03
2019-05-19T16:35:39.757Z,18.90
2019-05-19T16:38:12.655Z,18.71
2019-05-19T16:40:44.774Z,18.73
2019-05-19T16:43:17.752Z,18.53
2019-05-19T16:45:51.911Z,18.49
2019-05-19T16:48:24.535Z,18.44
2019-05-19T16:51:00.252Z,18.40
2019-05-19T16:53:31.464Z,18.28
2019-05-19T16:56:02.868Z,18.21
2019-05-19T16:58:44.875Z,18.22
2019-05-19T17:01:09.068Z,18.19
2019-05-19T17:03:43.215Z,18.22
2019-05-19T17:06:17.456Z,18.15
2019-05-19T17:08:50.673Z,18.22
2019-05-19T17:11:26.155Z,18.08
2019-05-19T17:13:57.661Z,17.98
2019-05-19T17:16:33.195Z,17.78
2019-05-19T17:19:06.608Z,17.86
2019-05-19T17:21:38.888Z,17.94
2019-05-19T17:24:12.725Z,17.90
2019-05-19T17:26:45.607Z,17.92
2019-05-19T17:29:19.604Z,17.85
2019-05-19T17:32:05.311Z,17.75
2019-05-19T17:34:27.213Z,17.71
2019-05-19T17:36:58.759Z,17.75
2019-05-19T17:39:29.971Z,17.57
2019-05-19T17:42:01.788Z,17.51
2019-05-19T17:44:35.046Z,17.55
2019-05-19T17:47:06.602Z,17.45
2019-05-19T17:49:39.866Z,17.41
2019-05-19T17:52:12.842Z,17.38
2019-05-19T17:54:45.805Z,17.23
2019-05-19T17:57:17.701Z,17.16
2019-05-19T17:59:51.980Z,17.15
2019-05-19T18:02:28.164Z,17.15
2019-05-19T18:05:02.584Z,17.06
2019-05-19T18:07:35.201Z,17.03
2019-05-19T18:10:06.807Z,17.06
2019-05-19T18:12:39.418Z,16.99
2019-05-19T18:15:13.731Z,16.98
2019-05-19T18:17:46.170Z,16.95
2019-05-19T18:20:23.782Z,17.02
2019-05-19T18:22:53.687Z,16.91
2019-05-19T18:25:27.064Z,17.00
2019-05-19T18:28:03.635Z,16.96
2019-05-19T18:30:37.144Z,16.98
2019-05-19T18:33:10.964Z,17.10
2019-05-19T18:35:45.926Z,16.84
2019-05-19T18:38:18.100Z,16.73
2019-05-19T18:40:49.331Z,16.63
2019-05-19T18:43:22.222Z,16.63
2019-05-19T18:45:56.747Z,16.69
2019-05-19T18:48:29.201Z,16.73
2019-05-19T18:51:08.633Z,16.73
2019-05-19T18:53:45.095Z,16.78
2019-05-19T18:56:21.975Z,16.77
2019-05-19T18:58:56.239Z,16.79
2019-05-19T19:01:29.936Z,16.74
2019-05-19T19:04:01.202Z,16.79
2019-05-19T19:06:33.297Z,16.73
2019-05-19T19:09:05.785Z,16.59
2019-05-19T19:11:38.335Z,16.80
2019-05-19T19:14:10.259Z,16.77
2019-05-19T19:16:47.352Z,16.75
2019-05-19T19:19:19.198Z,16.79
2019-05-19T19:21:52.203Z,16.57
2019-05-19T19:24:28.818Z,16.44
2019-05-19T19:27:00.349Z,16.50
2019-05-19T19:29:32.444Z,16.59
2019-05-19T19:32:06.533Z,16.53
2019-05-19T19:34:39.534Z,16.53
2019-05-19T19:37:12.421Z,16.56
2019-05-19T19:39:45.283Z,16.56
2019-05-19T19:42:16.662Z,16.47
2019-05-19T19:44:49.458Z,16.40
2019-05-19T19:47:23.485Z,16.28
2019-05-19T19:49:56.485Z,16.26
2019-05-19T19:52:32.135Z,16.28
2019-05-19T19:55:05.660Z,16.20
2019-05-19T19:57:39.555Z,16.02
2019-05-19T20:00:18.229Z,16.00
2019-05-19T20:02:51.459Z,15.96
2019-05-19T20:05:25.940Z,16.05
2019-05-19T20:07:58.595Z,15.75
2019-05-19T20:10:31.542Z,15.69
2019-05-19T20:13:05.766Z,15.74
2019-05-19T20:15:39.593Z,15.48
2019-05-19T20:18:14.064Z,15.34
2019-05-19T20:20:46.831Z,15.23
2019-05-19T20:23:20.792Z,15.25
2019-05-19T20:25:53.608Z,15.30
2019-05-19T20:28:27.646Z,15.35
2019-05-19T20:31:01.007Z,15.31
2019-05-19T20:33:38.746Z,15.19
2019-05-19T20:36:27.103Z,14.90
2019-05-19T20:38:59.634Z,14.87
2019-05-19T20:41:35.455Z,14.95
2019-05-19T20:44:07.145Z,15.02
2019-05-19T20:46:41.144Z,14.93
2019-05-19T20:49:13.794Z,14.77
2019-05-19T20:51:45.516Z,14.64
2019-05-19T20:54:18.705Z,14.62
2019-05-19T20:56:52.859Z,14.46
2019-05-19T20:59:25.706Z,14.33
2019-05-19T21:01:59.752Z,14.36
2019-05-19T21:04:31.710Z,14.34
2019-05-19T21:07:07.547Z,14.41
2019-05-19T21:09:39.375Z,14.47
2019-05-19T21:12:12.820Z,14.45
2019-05-19T21:14:45.901Z,14.39
2019-05-19T21:17:18.999Z,14.36
2019-05-19T21:19:52.150Z,14.42
2019-05-19T21:22:25.725Z,14.34
2019-05-19T21:24:58.960Z,14.07
2019-05-19T21:27:32.930Z,14.10
2019-05-19T21:30:06.989Z,14.25
2019-05-19T21:32:41.584Z,14.26
2019-05-19T21:35:13.922Z,14.06
2019-05-19T21:37:48.439Z,14.05
2019-05-19T21:40:21.470Z,14.13
2019-05-19T21:42:54.977Z,14.10
2019-05-19T21:45:28.654Z,14.15
2019-05-19T21:48:02.045Z,14.12
2019-05-19T21:50:35.864Z,14.09
2019-05-19T21:53:07.192Z,14.10
2019-05-19T21:55:39.899Z,14.05
2019-05-19T21:58:14.721Z,13.99
2019-05-19T22:00:46.911Z,14.00
2019-05-19T22:03:19.233Z,13.94
2019-05-19T22:05:53.746Z,13.85
2019-05-19T22:08:25.274Z,13.88
2019-05-19T22:10:58.012Z,13.85
2019-05-19T22:13:29.303Z,13.81
2019-05-19T22:16:12.245Z,13.85
2019-05-19T22:18:38.468Z,13.73
2019-05-19T22:21:10.720Z,13.78
2019-05-19T22:23:45.879Z,13.80
2019-05-19T22:26:19.347Z,13.79
2019-05-19T22:28:53.553Z,13.69
2019-05-19T22:31:36.179Z,13.51
2019-05-19T22:34:03.116Z,13.53
2019-05-19T22:36:34.727Z,13.32
2019-05-19T22:39:07.806Z,13.07
2019-05-19T22:41:44.431Z,13.14
2019-05-19T22:44:16.403Z,13.17
2019-05-19T22:46:49.567Z,13.26
2019-05-19T22:49:22.166Z,13.30
2019-05-19T22:51:54.751Z,13.04
2019-05-19T22:54:28.789Z,13.01
2019-05-19T22:57:01.305Z,13.12
2019-05-19T22:59:32.484Z,13.21
2019-05-19T23:02:05.488Z,13.28
2019-05-19T23:04:39.854Z,13.28
2019-05-19T23:07:13.368Z,13.27
2019-05-19T23:09:48.855Z,13.25
2019-05-19T23:12:20.556Z,13.24
2019-05-19T23:14:52.495Z,13.22
2019-05-19T23:17:25.478Z,13.18
2019-05-19T23:19:58.528Z,13.14
2019-05-19T23:22:31.351Z,13.20
2019-05-19T23:25:03.810Z,13.24
2019-05-19T23:27:36.545Z,13.20
2019-05-19T23:30:09.009Z,13.18
2019-05-19T23:32:40.449Z,13.16
2019-05-19T23:35:14.691Z,13.19
2019-05-19T23:37:47.670Z,13.19
2019-05-19T23:40:20.734Z,13.15
2019-05-19T23:42:53.657Z,13.13
2019-05-19T23:45:29.883Z,13.05
2019-05-19T23:48:01.573Z,13.09
2019-05-19T23:50:36.625Z,13.03
2019-05-19T23:53:11.406Z,13.06
2019-05-19T23:55:43.660Z,13.01
2019-05-19T23:58:16.746Z,13.02
